TimeCST,TemperatureF,Dew PointF,Humidity,Sea Level PressureIn,VisibilityMPH,Wind Direction,Wind SpeedMPH,Gust SpeedMPH,PrecipitationIn,Events,Conditions,WindDirDegrees,DateUTC
6:00 AM,73,65,69,29.89,12,ENE,6.9,,,,Clear,70,2014-01-24 12:00:00
6:00 AM,73.4,64.4,73,29.87,-9999.0,ENE,6.9,-,N/A,,Clear,70,2014-01-24 12:00:00
7:00 AM,77.0,62.6,61,29.91,-9999.0,East,8.1,-,N/A,,Clear,90,2014-01-24 13:00:00
8:00 AM,82.4,62.6,51,29.93,-9999.0,NE,11.5,-,N/A,,Clear,50,2014-01-24 14:00:00
9:00 AM,85,63,37,29.95,12,East,20.7,,,,Clear,80,2014-01-24 15:00:00
9:00 AM,86.0,62.6,45,29.93,-9999.0,East,20.7,-,N/A,,Clear,80,2014-01-24 15:00:00
10:00 AM,86.0,60.8,43,29.94,-9999.0,East,24.2,38.0,N/A,,Clear,80,2014-01-24 16:00:00
11:00 AM,87.8,60.8,40,29.92,-9999.0,ENE,26.5,38.0,N/A,,Clear,70,2014-01-24 17:00:00
12:00 PM,89,63,32,29.91,12,ENE,28.8,,,,,70,2014-01-24 18:00:00
12:00 PM,89.6,62.6,40,29.89,-9999.0,ENE,28.8,40.3,N/A,,Clear,70,2014-01-24 18:00:00
1:00 PM,89.6,66.2,46,29.85,6.2,East,20.7,33.4,N/A,,Partly Cloudy,90,2014-01-24 19:00:00
2:00 PM,87.8,64.4,46,29.83,6.2,ENE,26.5,38.0,N/A,,Partly Cloudy,70,2014-01-24 20:00:00
3:00 PM,89,64,34,29.82,12,East,23.0,,,,Scattered Clouds,80,2014-01-24 21:00:00
3:00 PM,89.6,64.4,43,29.81,6.2,East,23.0,-,N/A,,Partly Cloudy,80,2014-01-24 21:00:00
4:00 PM,87.8,64.4,46,29.79,6.2,East,20.7,32.2,N/A,,Partly Cloudy,90,2014-01-24 22:00:00
5:00 PM,84.2,66.2,55,29.82,6.2,East,21.9,33.4,N/A,,Partly Cloudy,80,2014-01-24 23:00:00
6:00 PM,81,63,44,29.84,12,East,18.4,,,,Clear,90,2014-01-25 00:00:00
6:00 PM,80.6,62.6,54,29.83,-9999.0,East,18.4,29.9,N/A,,Clear,90,2014-01-25 00:00:00
7:00 PM,80.6,64.4,58,29.85,-9999.0,East,20.7,33.4,N/A,,Clear,90,2014-01-25 01:00:00
8:00 PM,78.8,62.6,57,29.86,-9999.0,East,19.6,32.2,N/A,,Clear,90,2014-01-25 02:00:00